Time;durP1;ratioP1;P1;durP2;ratioP2;P2;SDS_P1;SDS_P2;PMS_P1;PMS_P2;Temp;Humidity;BMP_temperature;BMP_pressure;BME280_temperature;BME280_humidity;BME280_pressure;Samples;Min_cycle;Max_cycle;Signal;HPM_P1;HPM_P2
2022/06/06 00:02:06;;;;;;;4.77;2.80;;;24.40;98.80;;;;;;5076866;28;20449;-68
2022/06/06 00:04:33;;;;;;;2.90;2.60;;;24.30;98.70;;;;;;5076230;28;20444;-68
2022/06/06 00:06:59;;;;;;;2.63;2.43;;;24.30;98.70;;;;;;5076418;28;20419;-68
2022/06/06 00:09:27;;;;;;;3.20;3.00;;;24.30;98.80;;;;;;5076190;28;20437;-68
2022/06/06 00:11:57;;;;;;;2.30;2.10;;;24.20;98.70;;;;;;5076135;28;20414;-68
2022/06/06 00:14:23;;;;;;;3.57;2.60;;;24.10;98.80;;;;;;5094552;28;20441;-70
2022/06/06 00:16:54;;;;;;;3.20;2.80;;;24.10;98.90;;;;;;5076835;28;20788;-70
2022/06/06 00:19:20;;;;;;;2.70;2.50;;;24.00;99.20;;;;;;5076109;28;20260;-69
2022/06/06 00:21:46;;;;;;;5.20;3.60;;;24.00;99.40;;;;;;5075859;28;20441;-69
2022/06/06 00:24:13;;;;;;;3.97;3.53;;;23.90;98.80;;;;;;5076003;28;20640;-70
2022/06/06 00:26:39;;;;;;;3.50;3.20;;;23.90;98.90;;;;;;5076243;28;20419;-69
2022/06/06 00:29:06;;;;;;;3.43;3.13;;;23.90;98.80;;;;;;5076089;28;20422;-71
2022/06/06 00:37:11;;;;;;;4.07;3.10;;;23.80;98.80;;;;;;5094540;28;20749;-69
2022/06/06 00:39:37;;;;;;;3.10;2.80;;;23.80;98.70;;;;;;5075882;28;20488;-70
2022/06/06 00:42:11;;;;;;;3.73;3.33;;;23.80;98.60;;;;;;5105512;28;20852;-69
2022/06/06 00:44:37;;;;;;;3.20;2.90;;;23.70;98.70;;;;;;5095922;28;20445;-69
2022/06/06 00:47:25;;;;;;;3.90;3.10;;;23.70;98.60;;;;;;5114328;28;20415;-71
2022/06/06 00:50:00;;;;;;;3.33;3.03;;;23.70;98.80;;;;;;5096089;28;20483;-69
2022/06/06 00:52:34;;;;;;;2.87;2.60;;;23.60;99.20;;;;;;5096263;28;20514;-69
2022/06/06 00:55:05;;;;;;;3.70;3.00;;;23.60;99.10;;;;;;5095912;28;20448;-69
2022/06/06 00:57:34;;;;;;;4.07;2.93;;;23.60;99.20;;;;;;5095826;28;20404;-69
2022/06/06 01:00:06;;;;;;;3.20;2.90;;;23.60;99.10;;;;;;5095868;28;20487;-69
2022/06/06 01:02:32;;;;;;;2.77;2.53;;;23.50;99.10;;;;;;5095966;28;20426;-69
2022/06/06 01:05:01;;;;;;;3.30;3.00;;;23.50;99.20;;;;;;5095998;28;20463;-69
2022/06/06 01:07:28;;;;;;;3.73;3.10;;;23.50;99.20;;;;;;5097125;28;20408;-69
2022/06/06 01:09:56;;;;;;;3.83;2.47;;;23.40;99.40;;;;;;5099842;28;20976;-69
2022/06/06 01:12:23;;;;;;;3.37;3.07;;;23.40;99.60;;;;;;5099915;28;20407;-69
2022/06/06 01:14:55;;;;;;;3.60;3.30;;;23.40;99.60;;;;;;5100149;28;20447;-69
2022/06/06 01:17:42;;;;;;;3.10;2.73;;;23.30;99.60;;;;;;5100331;28;20411;-68
2022/06/06 01:20:23;;;;;;;3.53;2.93;;;23.30;99.60;;;;;;5100041;28;20478;-69
2022/06/06 01:23:27;;;;;;;3.30;3.00;;;23.20;99.60;;;;;;5099888;28;20862;-69
2022/06/06 01:26:18;;;;;;;2.70;2.50;;;23.20;99.60;;;;;;5098074;28;20507;-69
2022/06/06 01:29:29;;;;;;;3.20;2.90;;;23.10;99.60;;;;;;5099824;28;20770;-69
2022/06/06 01:32:08;;;;;;;3.40;3.00;;;22.90;99.80;;;;;;5018583;28;20431;-70
2022/06/06 01:34:37;;;;;;;3.47;3.17;;;22.80;99.90;;;;;;5018466;28;20494;-69
2022/06/06 01:37:04;;;;;;;2.80;2.57;;;22.70;99.90;;;;;;5086995;28;20477;-68
2022/06/06 01:39:32;;;;;;;3.63;3.33;;;22.70;99.90;;;;;;5118163;28;20869;-69
2022/06/06 01:42:00;;;;;;;3.13;2.83;;;22.60;99.90;;;;;;5089099;28;20415;-69
2022/06/06 01:44:45;;;;;;;3.63;3.33;;;22.60;99.90;;;;;;5079110;28;20964;-69
2022/06/06 01:47:36;;;;;;;3.33;2.80;;;22.60;99.90;;;;;;5097149;28;20484;-71
2022/06/06 01:50:05;;;;;;;3.17;2.87;;;22.60;99.90;;;;;;5077862;28;20461;-69
2022/06/06 01:52:53;;;;;;;3.57;3.27;;;22.60;99.90;;;;;;5079085;28;20413;-69
2022/06/06 01:55:20;;;;;;;2.80;2.60;;;22.60;99.90;;;;;;5079009;28;20531;-69
2022/06/06 01:57:49;;;;;;;3.00;2.70;;;22.60;99.90;;;;;;5078892;28;20973;-69
2022/06/06 02:00:17;;;;;;;2.60;2.40;;;22.60;99.90;;;;;;5077819;28;20488;-69
2022/06/06 02:02:43;;;;;;;3.30;2.97;;;22.50;99.90;;;;;;5079113;28;20405;-69
2022/06/06 02:05:11;;;;;;;3.37;2.77;;;22.50;99.90;;;;;;5078731;28;20495;-69
2022/06/06 02:07:39;;;;;;;3.70;2.97;;;22.50;99.90;;;;;;5078776;28;20447;-69
2022/06/06 02:10:09;;;;;;;3.30;3.00;;;22.50;99.90;;;;;;5078884;28;20461;-69
2022/06/06 02:12:39;;;;;;;4.77;3.20;;;22.40;99.90;;;;;;5079410;28;20424;-69
2022/06/06 02:15:07;;;;;;;3.17;2.87;;;22.40;99.90;;;;;;5078583;28;20456;-69
2022/06/06 02:17:33;;;;;;;3.00;2.70;;;22.40;99.90;;;;;;5078935;28;20420;-69
2022/06/06 02:20:01;;;;;;;4.40;3.50;;;22.40;99.90;;;;;;5077822;28;20484;-70
2022/06/06 02:22:28;;;;;;;2.93;2.63;;;22.30;99.90;;;;;;5078684;28;20499;-69
2022/06/06 02:24:58;;;;;;;3.97;2.57;;;22.30;99.90;;;;;;5078495;28;20452;-71
2022/06/06 02:27:25;;;;;;;2.67;2.47;;;22.30;99.90;;;;;;5078463;28;20426;-69
2022/06/06 02:29:52;;;;;;;2.83;2.57;;;22.30;99.90;;;;;;5078171;28;20459;-69
2022/06/06 02:32:17;;;;;;;3.00;2.60;;;22.30;99.90;;;;;;5096610;28;20397;-69
2022/06/06 02:34:44;;;;;;;3.10;2.80;;;22.30;99.90;;;;;;5078359;28;20476;-69
2022/06/06 02:37:10;;;;;;;3.20;2.90;;;22.20;99.90;;;;;;5078248;28;20700;-69
2022/06/06 02:39:35;;;;;;;3.00;2.70;;;22.20;99.90;;;;;;5077994;28;20481;-69
2022/06/06 02:42:01;;;;;;;3.03;2.73;;;22.20;99.90;;;;;;5089025;28;20179;-69
2022/06/06 02:44:27;;;;;;;2.93;2.73;;;22.20;99.90;;;;;;5098268;28;20310;-69
2022/06/06 02:46:53;;;;;;;5.80;3.00;;;22.10;99.90;;;;;;5098745;28;20423;-69
2022/06/06 02:49:20;;;;;;;3.90;3.50;;;22.10;99.90;;;;;;5098092;28;20529;-70
2022/06/06 02:51:48;;;;;;;3.40;3.03;;;22.10;99.90;;;;;;5097897;28;20452;-70
2022/06/06 02:54:16;;;;;;;2.90;2.63;;;22.00;99.90;;;;;;5098153;28;20813;-69
2022/06/06 02:56:47;;;;;;;3.77;2.93;;;22.00;99.90;;;;;;5098259;28;20415;-70
2022/06/06 02:59:17;;;;;;;2.83;2.50;;;22.00;99.90;;;;;;5098087;28;20541;-71
2022/06/06 03:01:44;;;;;;;3.63;3.33;;;21.90;99.90;;;;;;5098055;28;20420;-70
2022/06/06 03:04:09;;;;;;;2.67;2.50;;;21.90;99.90;;;;;;5116243;28;20837;-69
2022/06/06 03:07:00;;;;;;;2.90;2.70;;;21.90;99.90;;;;;;5097722;28;20440;-69
2022/06/06 03:09:47;;;;;;;3.50;2.93;;;21.80;99.90;;;;;;5097863;28;20207;-69
2022/06/06 03:12:55;;;;;;;3.60;2.37;;;21.80;99.90;;;;;;5097844;28;20506;-69
2022/06/06 03:15:27;;;;;;;2.70;2.50;;;21.80;99.90;;;;;;5089081;28;20517;-69
2022/06/06 03:21:07;;;;;;;3.30;2.70;;;21.70;99.90;;;;;;5116089;28;20463;-69
2022/06/06 03:24:14;;;;;;;3.60;2.63;;;21.70;99.90;;;;;;5097854;28;20419;-69
2022/06/06 03:27:18;;;;;;;2.80;2.60;;;21.60;99.90;;;;;;5097440;28;20420;-69
2022/06/06 03:29:51;;;;;;;2.73;2.53;;;21.60;99.90;;;;;;5031756;28;20546;-69
2022/06/06 03:32:42;;;;;;;3.30;3.00;;;21.60;99.90;;;;;;5096586;28;20412;-69
2022/06/06 03:35:14;;;;;;;3.50;3.10;;;21.60;99.90;;;;;;5097515;28;20959;-69
2022/06/06 03:38:01;;;;;;;2.30;2.10;;;21.50;99.90;;;;;;5097581;28;20423;-69
2022/06/06 03:41:00;;;;;;;2.70;2.40;;;21.50;99.90;;;;;;5097330;28;20471;-69
2022/06/06 03:43:51;;;;;;;3.00;2.70;;;21.50;99.90;;;;;;5054217;28;20492;-69
2022/06/06 03:46:27;;;;;;;3.10;2.80;;;21.50;99.90;;;;;;5056638;28;20461;-70
2022/06/06 03:49:07;;;;;;;4.20;3.10;;;21.40;99.90;;;;;;5056653;28;20425;-69
2022/06/06 03:51:59;;;;;;;2.93;2.63;;;21.40;99.90;;;;;;5056708;28;21039;-69
2022/06/06 03:54:50;;;;;;;3.23;2.50;;;21.40;99.90;;;;;;5056513;28;20463;-70
2022/06/06 03:57:24;;;;;;;4.00;3.37;;;21.40;99.90;;;;;;5056363;28;20507;-68
2022/06/06 03:59:59;;;;;;;5.90;3.20;;;21.30;99.90;;;;;;5056638;28;20543;-69
2022/06/06 04:02:33;;;;;;;2.50;2.30;;;21.30;99.90;;;;;;5056460;28;20420;-68
2022/06/06 04:05:09;;;;;;;3.40;2.73;;;21.30;99.90;;;;;;5056623;28;20437;-68
2022/06/06 04:07:35;;;;;;;3.23;2.93;;;21.30;99.90;;;;;;5056451;28;20408;-69
2022/06/06 04:10:02;;;;;;;2.93;2.43;;;21.20;99.90;;;;;;5056154;28;20450;-69
2022/06/06 04:12:46;;;;;;;3.13;2.83;;;21.20;99.90;;;;;;5056196;28;20899;-68
2022/06/06 04:15:25;;;;;;;3.70;2.77;;;21.20;99.90;;;;;;5056143;28;20452;-69
2022/06/06 04:18:37;;;;;;;3.90;2.97;;;21.20;99.90;;;;;;5056302;28;20422;-69
2022/06/06 04:21:11;;;;;;;4.23;3.77;;;21.20;99.90;;;;;;5056177;28;20449;-68
2022/06/06 04:23:52;;;;;;;3.30;2.97;;;21.10;99.90;;;;;;5056006;28;20914;-68
2022/06/06 04:26:34;;;;;;;3.40;3.10;;;21.10;99.90;;;;;;5056362;28;20418;-69
2022/06/06 04:29:19;;;;;;;5.90;3.00;;;21.10;99.90;;;;;;5055862;28;20517;-69
2022/06/06 04:31:56;;;;;;;3.37;3.07;;;21.10;99.90;;;;;;5055721;28;20475;-68
2022/06/06 04:34:59;;;;;;;4.17;3.77;;;21.00;99.90;;;;;;5056240;28;20444;-68
2022/06/06 04:37:40;;;;;;;2.97;2.70;;;21.00;99.90;;;;;;5055621;28;20797;-70
2022/06/06 04:40:35;;;;;;;4.40;2.70;;;21.00;99.90;;;;;;5055757;28;20498;-69
2022/06/06 04:43:27;;;;;;;4.17;2.97;;;21.00;99.90;;;;;;5095303;28;20416;-69
2022/06/06 04:45:58;;;;;;;3.27;2.63;;;21.00;99.90;;;;;;5096010;28;20480;-70
2022/06/06 04:48:25;;;;;;;3.87;3.20;;;21.00;99.90;;;;;;5095983;28;20463;-69
2022/06/06 04:50:51;;;;;;;4.60;3.63;;;21.00;99.90;;;;;;5095634;28;20486;-70
2022/06/06 04:53:25;;;;;;;4.37;3.50;;;21.00;99.90;;;;;;5095723;28;20422;-70
2022/06/06 04:55:53;;;;;;;3.70;3.30;;;21.00;99.90;;;;;;5096019;28;20844;-70
2022/06/06 04:58:26;;;;;;;3.93;3.23;;;21.00;99.90;;;;;;5095888;28;20441;-70
2022/06/06 05:00:52;;;;;;;3.50;2.83;;;21.00;99.90;;;;;;5096248;28;20467;-69
2022/06/06 05:03:20;;;;;;;4.07;3.10;;;21.00;99.90;;;;;;5095789;28;20415;-70
2022/06/06 05:06:16;;;;;;;4.17;3.63;;;21.00;99.90;;;;;;5095919;28;20443;-70
2022/06/06 05:09:00;;;;;;;3.07;2.87;;;21.00;99.90;;;;;;5095951;28;20412;-70
2022/06/06 05:11:49;;;;;;;2.53;2.33;;;21.10;99.90;;;;;;5095836;28;20424;-69
2022/06/06 05:14:38;;;;;;;3.50;3.20;;;21.10;99.90;;;;;;5095558;28;20448;-69
2022/06/06 05:17:22;;;;;;;4.23;3.10;;;21.10;99.90;;;;;;5095756;28;20427;-69
2022/06/06 05:20:05;;;;;;;3.80;3.33;;;21.10;99.90;;;;;;5096011;28;20506;-69
2022/06/06 05:22:53;;;;;;;3.30;3.00;;;21.10;99.90;;;;;;5096051;28;20435;-69
2022/06/06 05:25:33;;;;;;;3.20;3.00;;;21.20;99.90;;;;;;5096133;28;21010;-69
2022/06/06 05:28:20;;;;;;;3.57;3.10;;;21.20;99.90;;;;;;5095797;28;20439;-69
2022/06/06 05:30:55;;;;;;;3.13;2.67;;;21.30;99.90;;;;;;5095533;28;20812;-69
2022/06/06 05:33:51;;;;;;;3.50;3.20;;;21.40;99.90;;;;;;5095591;28;20406;-69
2022/06/06 05:36:23;;;;;;;3.30;3.00;;;21.40;99.90;;;;;;5096052;28;20993;-69
2022/06/06 05:39:01;;;;;;;3.10;2.63;;;21.50;99.90;;;;;;5095646;28;20455;-68
2022/06/06 05:41:51;;;;;;;3.67;3.37;;;21.60;99.90;;;;;;5089102;28;20432;-69
2022/06/06 05:44:25;;;;;;;4.27;3.17;;;21.70;99.90;;;;;;5075511;28;20543;-69
2022/06/06 05:47:12;;;;;;;3.23;3.00;;;21.70;99.90;;;;;;5075439;28;20421;-69
2022/06/06 05:49:51;;;;;;;3.13;2.80;;;21.70;99.90;;;;;;5075560;28;20461;-69
2022/06/06 05:52:32;;;;;;;6.43;3.23;;;21.70;99.90;;;;;;5093491;28;20393;-69
2022/06/06 05:55:37;;;;;;;3.67;3.23;;;21.80;99.90;;;;;;5076976;28;20452;-70
2022/06/06 05:58:16;;;;;;;2.90;2.63;;;21.80;99.90;;;;;;5041344;28;20828;-69
2022/06/06 06:00:49;;;;;;;4.07;2.63;;;21.80;99.90;;;;;;5078741;28;20468;-69
2022/06/06 06:03:43;;;;;;;3.23;2.93;;;21.80;99.90;;;;;;5078951;28;20763;-69
2022/06/06 06:06:39;;;;;;;30.27;16.30;;;21.90;99.90;;;;;;5078876;28;20448;-69
2022/06/06 06:09:29;;;;;;;46.90;27.30;;;21.90;99.90;;;;;;5078821;28;20949;-69
2022/06/06 06:12:09;;;;;;;52.10;27.43;;;22.00;99.90;;;;;;5079165;28;20425;-69
2022/06/06 06:15:12;;;;;;;10.03;7.00;;;22.00;99.90;;;;;;5078387;28;20499;-69
2022/06/06 06:17:39;;;;;;;4.83;3.67;;;22.00;99.90;;;;;;5078813;28;20504;-69
2022/06/06 06:20:14;;;;;;;3.83;3.53;;;22.10;99.90;;;;;;5096228;28;21011;-69
2022/06/06 06:22:48;;;;;;;2.90;2.70;;;22.10;99.90;;;;;;5096287;28;20492;-71
2022/06/06 06:25:15;;;;;;;3.13;2.90;;;22.20;99.90;;;;;;5078483;28;20961;-69
2022/06/06 06:27:43;;;;;;;3.20;3.00;;;22.20;99.90;;;;;;5078166;28;20424;-69
2022/06/06 06:30:10;;;;;;;3.77;3.17;;;22.20;99.90;;;;;;5078002;28;20483;-69
2022/06/06 06:33:08;;;;;;;3.33;2.80;;;22.20;99.90;;;;;;5077743;28;20420;-71
2022/06/06 06:35:49;;;;;;;3.43;3.13;;;22.20;99.90;;;;;;5078136;28;20514;-69
2022/06/06 06:38:53;;;;;;;3.33;3.00;;;22.20;99.90;;;;;;5077804;28;20509;-69
2022/06/06 06:41:33;;;;;;;3.80;3.50;;;22.20;99.90;;;;;;5083627;28;20432;-69
2022/06/06 06:44:11;;;;;;;3.23;2.93;;;22.30;99.90;;;;;;5098035;28;20455;-68
2022/06/06 06:47:09;;;;;;;3.10;2.90;;;22.30;99.90;;;;;;5116345;28;20436;-69
2022/06/06 06:50:01;;;;;;;3.10;2.90;;;22.30;99.90;;;;;;5097701;28;20513;-69
2022/06/06 06:52:44;;;;;;;3.90;3.10;;;22.30;99.90;;;;;;5114860;28;20959;-69
2022/06/06 06:55:32;;;;;;;3.63;3.33;;;22.30;99.90;;;;;;5114584;28;20436;-69
2022/06/06 06:58:10;;;;;;;3.40;3.10;;;22.30;99.90;;;;;;5097581;28;20454;-69
2022/06/06 07:00:45;;;;;;;3.30;3.00;;;22.30;99.90;;;;;;5097719;28;20490;-69
2022/06/06 07:09:44;;;;;;;2.87;2.67;;;22.40;99.90;;;;;;5115021;28;20987;-69
2022/06/06 07:12:30;;;;;;;6.30;3.60;;;22.40;99.90;;;;;;5095756;28;20507;-70
2022/06/06 07:15:38;;;;;;;3.97;3.27;;;22.50;99.90;;;;;;5054226;28;20517;-69
2022/06/06 07:18:08;;;;;;;3.33;2.93;;;22.60;99.90;;;;;;5023776;28;20443;-69
2022/06/06 07:20:38;;;;;;;3.10;2.80;;;22.70;99.90;;;;;;5095835;28;20534;-68
2022/06/06 07:23:09;;;;;;;4.10;3.73;;;22.70;99.90;;;;;;5096307;28;20691;-68
2022/06/06 07:25:40;;;;;;;4.20;3.00;;;22.80;99.90;;;;;;5097528;28;20447;-69
2022/06/06 07:28:26;;;;;;;3.80;3.40;;;22.80;99.90;;;;;;5097603;28;20894;-69
2022/06/06 07:31:06;;;;;;;3.57;3.27;;;22.90;99.90;;;;;;5097535;28;20454;-68
2022/06/06 07:33:48;;;;;;;2.80;2.60;;;22.90;99.90;;;;;;5097498;28;20417;-70
2022/06/06 07:36:38;;;;;;;3.20;2.90;;;22.90;99.90;;;;;;5096648;28;20424;-68
2022/06/06 07:39:10;;;;;;;3.53;2.90;;;22.90;99.90;;;;;;5097069;28;20475;-69
2022/06/06 07:42:11;;;;;;;8.07;2.97;;;22.90;99.90;;;;;;5089521;28;20945;-68
2022/06/06 07:45:02;;;;;;;3.87;3.50;;;22.90;99.90;;;;;;5076853;28;20798;-70
2022/06/06 07:47:54;;;;;;;3.30;2.83;;;23.00;99.90;;;;;;5076973;28;20417;-71
2022/06/06 07:50:45;;;;;;;4.30;3.80;;;23.00;99.90;;;;;;5076663;28;20473;-69
2022/06/06 07:53:30;;;;;;;4.40;3.60;;;23.00;99.90;;;;;;5075873;28;20504;-68
2022/06/06 07:56:15;;;;;;;4.90;4.20;;;23.00;99.90;;;;;;5094569;28;20532;-69
2022/06/06 07:59:11;;;;;;;4.20;3.80;;;23.00;99.90;;;;;;5094600;28;20955;-68
2022/06/06 08:01:46;;;;;;;4.00;3.60;;;23.10;99.90;;;;;;5063077;28;20425;-69
2022/06/06 08:04:37;;;;;;;4.37;3.63;;;23.10;99.90;;;;;;5076335;28;20957;-69
2022/06/06 08:07:21;;;;;;;4.00;3.67;;;23.10;99.90;;;;;;5076469;28;20421;-69
2022/06/06 08:10:08;;;;;;;7.30;4.60;;;23.10;99.90;;;;;;5076321;28;20610;-69
2022/06/06 08:12:38;;;;;;;3.43;3.20;;;23.10;99.90;;;;;;5076113;28;20413;-69
2022/06/06 08:15:04;;;;;;;3.83;3.43;;;23.10;99.90;;;;;;5076372;28;20449;-68
2022/06/06 08:17:32;;;;;;;3.93;3.60;;;23.10;99.90;;;;;;5075433;28;20946;-68
2022/06/06 08:20:28;;;;;;;3.60;3.30;;;23.10;99.90;;;;;;5094176;28;20220;-69
2022/06/06 08:23:00;;;;;;;4.30;3.50;;;23.20;99.90;;;;;;5076240;28;20424;-69
2022/06/06 08:25:27;;;;;;;3.43;3.10;;;23.20;99.90;;;;;;5076208;28;20491;-68
2022/06/06 08:27:56;;;;;;;4.60;3.40;;;23.20;99.90;;;;;;5094275;28;20409;-69
2022/06/06 08:30:23;;;;;;;3.20;2.90;;;23.30;99.90;;;;;;5076195;28;20464;-68
2022/06/06 08:32:51;;;;;;;3.10;2.90;;;23.30;99.90;;;;;;5076043;28;20405;-69
2022/06/06 08:35:17;;;;;;;3.30;3.00;;;23.40;99.90;;;;;;5075885;28;20453;-68
2022/06/06 08:38:03;;;;;;;7.53;3.40;;;23.50;99.90;;;;;;5076073;28;20500;-70
2022/06/06 08:41:07;;;;;;;3.40;3.03;;;23.60;99.90;;;;;;5076182;28;20693;-68
2022/06/06 08:43:59;;;;;;;3.80;3.00;;;23.70;99.90;;;;;;5074037;28;20954;-69
2022/06/06 08:47:09;;;;;;;4.03;3.20;;;23.90;99.90;;;;;;5073859;28;20954;-70
2022/06/06 08:53:04;;;;;;;348.40;180.27;;;24.00;99.90;;;;;;5073870;28;20441;-69
2022/06/06 08:56:08;;;;;;;19.97;14.43;;;24.10;99.90;;;;;;5055975;28;20462;-69
2022/06/06 08:58:40;;;;;;;8.40;5.07;;;24.20;99.90;;;;;;5056085;28;20427;-68
2022/06/06 09:01:28;;;;;;;3.70;3.40;;;24.30;99.90;;;;;;5055859;28;20433;-69
2022/06/06 09:04:12;;;;;;;3.60;2.67;;;24.40;99.90;;;;;;5055540;28;20450;-68
2022/06/06 09:07:15;;;;;;;4.43;2.73;;;24.50;99.90;;;;;;5056084;28;20419;-69
2022/06/06 09:10:06;;;;;;;3.30;3.00;;;24.60;99.90;;;;;;5055601;28;20452;-68
2022/06/06 09:12:38;;;;;;;3.10;2.80;;;24.70;99.90;;;;;;5055721;28;20442;-69
2022/06/06 09:15:06;;;;;;;3.53;3.07;;;24.80;99.90;;;;;;5073869;28;20443;-68
2022/06/06 09:17:58;;;;;;;3.33;3.03;;;24.90;99.90;;;;;;5055355;28;20955;-68
2022/06/06 09:20:33;;;;;;;70.53;35.33;;;25.00;99.90;;;;;;5054127;28;20502;-68
2022/06/06 09:23:38;;;;;;;54.23;33.80;;;25.10;99.90;;;;;;5055261;28;20879;-68
2022/06/06 09:26:09;;;;;;;5.40;4.90;;;25.20;99.90;;;;;;5069113;28;20498;-68
2022/06/06 09:28:48;;;;;;;3.67;3.37;;;25.30;99.90;;;;;;5056303;28;20934;-69
2022/06/06 09:31:14;;;;;;;4.20;3.00;;;25.40;99.90;;;;;;5059308;28;20491;-69
2022/06/06 09:34:11;;;;;;;3.50;3.20;;;25.50;99.90;;;;;;5059228;28;20425;-69
2022/06/06 09:36:46;;;;;;;4.07;2.63;;;25.60;99.90;;;;;;5059653;28;20187;-69
2022/06/06 09:39:32;;;;;;;2.83;2.60;;;25.70;99.90;;;;;;5058978;28;20472;-70
2022/06/06 09:42:17;;;;;;;7.83;3.60;;;25.80;99.90;;;;;;5069715;28;20957;-69
2022/06/06 09:44:57;;;;;;;3.33;3.00;;;25.80;99.90;;;;;;5079120;28;20551;-69
2022/06/06 09:47:53;;;;;;;3.03;2.83;;;26.00;99.90;;;;;;5079004;28;20433;-69
2022/06/06 09:50:30;;;;;;;2.90;2.60;;;26.00;99.90;;;;;;5078744;28;20484;-69
2022/06/06 09:53:08;;;;;;;2.70;2.50;;;26.00;99.90;;;;;;5078991;28;20413;-69
2022/06/06 09:59:15;;;;;;;3.83;2.50;;;26.20;99.90;;;;;;5096937;28;20446;-69
2022/06/06 10:01:58;;;;;;;2.87;2.17;;;26.20;99.90;;;;;;5040895;28;20512;-70
2022/06/06 10:04:46;;;;;;;2.57;2.33;;;26.20;99.90;;;;;;5078776;28;20803;-68
2022/06/06 10:07:21;;;;;;;2.80;2.57;;;26.30;99.90;;;;;;5078021;28;20841;-69
2022/06/06 10:10:05;;;;;;;2.70;2.50;;;26.30;99.90;;;;;;5079045;28;20448;-69
2022/06/06 10:12:41;;;;;;;2.73;2.53;;;26.40;99.90;;;;;;5078818;28;20468;-69
2022/06/06 10:15:38;;;;;;;2.83;2.63;;;26.40;99.90;;;;;;5078615;28;20456;-69
2022/06/06 10:18:28;;;;;;;2.80;2.50;;;26.40;99.90;;;;;;5078146;28;20413;-69
2022/06/06 10:21:31;;;;;;;3.03;2.83;;;26.50;99.90;;;;;;5096720;28;20452;-69
2022/06/06 10:24:10;;;;;;;2.73;2.53;;;26.50;99.90;;;;;;5078539;28;20929;-69
2022/06/06 10:26:46;;;;;;;3.20;2.90;;;26.50;99.90;;;;;;5078471;28;20405;-70
2022/06/06 10:30:10;;;;;;;2.50;2.30;;;26.50;99.90;;;;;;5078324;28;20816;-69
2022/06/06 10:33:04;;;;;;;2.97;2.73;;;26.50;99.90;;;;;;5096633;28;20431;-70
2022/06/06 10:35:45;;;;;;;2.83;2.63;;;26.50;99.90;;;;;;5078537;28;20518;-69
2022/06/06 10:38:40;;;;;;;2.70;2.50;;;26.60;99.90;;;;;;5078259;28;20463;-69
2022/06/06 10:41:42;;;;;;;3.57;2.87;;;26.60;99.90;;;;;;5098645;28;20436;-69
2022/06/06 10:44:31;;;;;;;2.60;2.40;;;26.50;99.90;;;;;;5096113;28;20464;-69
2022/06/06 10:47:18;;;;;;;2.60;2.40;;;26.50;99.90;;;;;;5096180;28;20488;-70
2022/06/06 10:49:44;;;;;;;3.33;2.70;;;26.50;99.90;;;;;;5095895;28;20479;-69
2022/06/06 10:52:39;;;;;;;2.63;2.43;;;26.50;99.90;;;;;;5114583;28;20447;-69
2022/06/06 10:55:34;;;;;;;2.33;2.03;;;26.50;99.90;;;;;;5097079;28;20238;-69
2022/06/06 10:58:39;;;;;;;2.43;2.23;;;26.50;99.90;;;;;;5098300;28;20777;-69
2022/06/06 11:01:44;;;;;;;2.47;2.27;;;26.50;99.60;;;;;;5057120;28;20451;-70
2022/06/06 11:04:43;;;;;;;4.20;2.17;;;26.60;99.30;;;;;;5098052;28;20435;-69
2022/06/06 11:07:18;;;;;;;2.63;2.43;;;26.60;99.90;;;;;;5098069;28;20515;-70
2022/06/06 11:09:53;;;;;;;3.80;2.67;;;26.60;99.90;;;;;;5097705;28;20451;-69
2022/06/06 11:12:46;;;;;;;2.30;2.10;;;26.60;99.40;;;;;;5097942;28;20462;-69
2022/06/06 11:15:12;;;;;;;2.47;2.30;;;26.60;99.10;;;;;;5097757;28;20463;-69
2022/06/06 11:18:22;;;;;;;2.80;2.60;;;26.60;99.30;;;;;;5097971;28;20409;-70
2022/06/06 11:21:02;;;;;;;2.63;2.43;;;26.60;99.30;;;;;;5097751;28;20520;-69
2022/06/06 11:24:08;;;;;;;2.30;2.10;;;26.70;99.30;;;;;;5097654;28;20416;-69
2022/06/06 11:26:52;;;;;;;1.93;1.83;;;26.70;99.90;;;;;;5074573;28;20427;-69
2022/06/06 11:29:30;;;;;;;2.27;2.07;;;26.80;99.80;;;;;;5097483;28;20809;-71
2022/06/06 11:32:17;;;;;;;2.77;2.50;;;26.90;98.20;;;;;;5097013;28;20453;-69
2022/06/06 11:34:49;;;;;;;2.47;2.27;;;27.00;98.00;;;;;;5097079;28;20790;-69
2022/06/06 11:37:52;;;;;;;3.00;2.33;;;27.00;97.70;;;;;;5097211;28;20416;-69
2022/06/06 11:40:31;;;;;;;2.20;2.00;;;27.10;98.90;;;;;;5097247;28;20479;-69
2022/06/06 11:43:02;;;;;;;6.00;3.30;;;27.20;99.30;;;;;;5078168;28;20578;-70
2022/06/06 11:45:50;;;;;;;5.90;3.10;;;27.20;98.80;;;;;;5076787;28;20445;-69
2022/06/06 11:48:25;;;;;;;2.50;2.30;;;27.30;97.30;;;;;;5076770;28;20512;-69
2022/06/06 11:51:03;;;;;;;3.40;3.10;;;27.30;98.40;;;;;;5076399;28;20480;-71
2022/06/06 11:54:22;;;;;;;3.20;2.60;;;27.30;97.30;;;;;;5075926;28;20940;-69
2022/06/06 11:57:17;;;;;;;2.73;2.53;;;27.40;98.50;;;;;;5076951;28;20487;-69
2022/06/06 12:00:18;;;;;;;2.40;2.30;;;27.30;99.30;;;;;;5076689;28;20481;-69
2022/06/06 12:02:59;;;;;;;2.53;2.30;;;27.40;97.20;;;;;;5094740;28;20487;-69
2022/06/06 12:05:31;;;;;;;2.30;2.10;;;27.40;96.90;;;;;;5076592;28;20461;-69
2022/06/06 12:08:18;;;;;;;2.50;2.10;;;27.50;97.60;;;;;;5076393;28;20420;-69
2022/06/06 12:10:59;;;;;;;2.47;2.27;;;27.50;97.60;;;;;;5076099;28;20459;-69
2022/06/06 12:13:44;;;;;;;3.00;2.70;;;27.50;98.80;;;;;;5076483;28;20491;-70
2022/06/06 12:16:16;;;;;;;2.27;2.07;;;27.50;97.40;;;;;;5076560;28;20942;-69
2022/06/06 12:18:57;;;;;;;2.90;2.60;;;27.50;97.90;;;;;;5094360;28;20389;-69
2022/06/06 12:21:32;;;;;;;2.87;2.63;;;27.50;98.50;;;;;;5076324;28;20422;-69
2022/06/06 12:24:25;;;;;;;2.33;2.13;;;27.50;97.30;;;;;;5076030;28;20434;-69
2022/06/06 12:27:22;;;;;;;3.13;2.83;;;27.50;96.10;;;;;;5076398;28;20417;-69
2022/06/06 12:30:09;;;;;;;2.53;2.33;;;27.60;98.20;;;;;;5076337;28;20444;-69
2022/06/06 12:33:04;;;;;;;2.60;2.40;;;27.50;99.00;;;;;;5076313;28;20921;-71
2022/06/06 12:35:44;;;;;;;2.87;2.57;;;27.50;98.40;;;;;;5073268;28;20954;-69
2022/06/06 12:38:41;;;;;;;2.67;2.47;;;27.60;97.30;;;;;;5076081;28;20417;-70
2022/06/06 12:41:45;;;;;;;3.10;2.77;;;27.60;97.40;;;;;;5079876;28;20953;-69
2022/06/06 12:44:17;;;;;;;3.17;2.73;;;27.70;97.00;;;;;;5096152;28;20436;-69
2022/06/06 12:47:03;;;;;;;2.90;2.70;;;27.70;98.50;;;;;;5096683;28;20416;-69
2022/06/06 12:50:00;;;;;;;2.60;2.40;;;27.80;98.50;;;;;;5096119;28;21028;-70
2022/06/06 12:52:42;;;;;;;3.00;2.77;;;27.80;98.10;;;;;;5115018;28;20454;-69
2022/06/06 12:56:13;;;;;;;2.67;2.47;;;27.80;97.10;;;;;;5114392;28;20439;-69
2022/06/06 12:58:44;;;;;;;2.73;2.50;;;27.90;97.80;;;;;;5113905;28;20478;-69
2022/06/06 13:01:37;;;;;;;2.93;2.63;;;27.90;96.80;;;;;;5096133;28;20473;-69
2022/06/06 13:04:17;;;;;;;2.60;2.40;;;28.00;97.20;;;;;;5100042;28;20436;-69
2022/06/06 13:06:48;;;;;;;2.50;2.30;;;28.00;96.70;;;;;;5102763;28;20477;-70
2022/06/06 13:09:38;;;;;;;3.20;2.90;;;28.00;97.60;;;;;;5102436;28;20493;-70
2022/06/06 13:12:07;;;;;;;6.73;2.50;;;28.10;97.90;;;;;;5102575;28;20531;-69
2022/06/06 13:15:14;;;;;;;3.30;3.00;;;28.00;98.20;;;;;;5102541;28;20458;-69
2022/06/06 13:17:58;;;;;;;2.87;2.67;;;28.10;97.70;;;;;;5102637;28;20971;-70
2022/06/06 13:20:38;;;;;;;3.10;2.80;;;28.10;98.20;;;;;;5102646;28;20486;-70
2022/06/06 13:23:17;;;;;;;2.43;2.23;;;28.10;97.20;;;;;;5102441;28;20514;-70
2022/06/06 13:26:11;;;;;;;2.77;2.57;;;28.10;97.10;;;;;;5101654;28;20509;-69
2022/06/06 13:28:50;;;;;;;2.17;2.07;;;28.20;97.30;;;;;;5065897;28;20770;-69
2022/06/06 13:31:51;;;;;;;2.80;2.60;;;28.20;97.40;;;;;;5102653;28;20420;-69
2022/06/06 13:34:56;;;;;;;2.70;2.50;;;28.20;96.20;;;;;;5102359;28;20458;-70
2022/06/06 13:38:08;;;;;;;2.60;2.37;;;28.20;96.70;;;;;;5102235;28;20423;-68
2022/06/06 13:40:48;;;;;;;2.57;2.37;;;28.30;96.70;;;;;;5071623;28;20491;-69
2022/06/06 13:43:32;;;;;;;3.03;2.40;;;28.30;95.90;;;;;;5061946;28;20815;-69
2022/06/06 13:46:04;;;;;;;2.23;2.03;;;28.30;96.90;;;;;;5061760;28;20841;-69
2022/06/06 13:48:42;;;;;;;6.33;2.43;;;28.30;96.60;;;;;;5074767;28;20489;-70
2022/06/06 13:51:29;;;;;;;3.07;1.93;;;28.30;95.80;;;;;;5080837;28;20466;-69
2022/06/06 13:54:25;;;;;;;2.67;2.47;;;28.40;93.10;;;;;;5099366;28;20444;-70
2022/06/06 13:56:55;;;;;;;2.87;2.67;;;28.40;93.80;;;;;;5081584;28;20932;-70
2022/06/06 13:59:38;;;;;;;2.40;2.20;;;28.50;93.90;;;;;;5099862;28;20844;-69
2022/06/06 14:02:26;;;;;;;2.00;1.80;;;28.40;95.60;;;;;;5081740;28;20779;-70
2022/06/06 14:05:07;;;;;;;2.07;1.97;;;28.50;94.60;;;;;;5081626;28;20983;-70
2022/06/06 14:07:48;;;;;;;2.63;2.43;;;28.50;96.00;;;;;;5081693;28;20417;-70
2022/06/06 14:10:18;;;;;;;2.47;2.27;;;28.50;94.80;;;;;;5081837;28;20449;-70
2022/06/06 14:12:52;;;;;;;1.60;1.50;;;28.50;94.00;;;;;;5081932;28;20424;-71
2022/06/06 14:15:21;;;;;;;2.10;2.00;;;28.50;96.00;;;;;;5079545;28;20444;-70
2022/06/06 14:18:00;;;;;;;5.00;2.00;;;28.50;92.90;;;;;;5078878;28;20417;-69
2022/06/06 14:20:45;;;;;;;2.67;2.07;;;28.50;94.70;;;;;;5078761;28;21081;-69